createdAt,value
2023-05-19T00:11:45.808Z,6.10
2023-05-19T00:26:49.095Z,10.60
2023-05-19T00:41:51.850Z,5.90
2023-05-19T00:56:56.990Z,5.83
2023-05-19T01:12:01.502Z,7.17
2023-05-19T01:27:35.593Z,5.40
2023-05-19T01:42:40.292Z,7.43
2023-05-19T01:57:51.452Z,5.33
2023-05-19T02:12:58.957Z,6.90
2023-05-19T02:28:01.953Z,7.07
2023-05-19T02:43:06.515Z,5.60
2023-05-19T02:58:13.268Z,7.83
2023-05-19T03:13:17.367Z,6.67
2023-05-19T03:28:20.103Z,6.50
2023-05-19T03:43:22.657Z,5.83
2023-05-19T03:58:34.346Z,10.50
2023-05-19T04:13:37.691Z,9.50
2023-05-19T04:28:42.455Z,12.70
2023-05-19T04:43:45.041Z,16.17
2023-05-19T04:58:50.143Z,9.33
2023-05-19T05:13:53.967Z,6.03
2023-05-19T05:28:56.876Z,7.27
2023-05-19T05:44:00.926Z,7.07
2023-05-19T05:59:05.761Z,8.27
2023-05-19T06:14:09.350Z,6.23
2023-05-19T06:29:41.132Z,5.93
2023-05-19T06:44:44.717Z,8.27
2023-05-19T06:59:48.512Z,8.43
2023-05-19T07:14:51.660Z,7.50
2023-05-19T07:29:55.150Z,8.13
2023-05-19T07:44:58.092Z,5.87
2023-05-19T08:00:02.007Z,5.83
2023-05-19T08:15:14.793Z,6.43
2023-05-19T08:30:18.969Z,8.90
2023-05-19T08:45:21.900Z,6.77
2023-05-19T09:00:27.115Z,7.90
2023-05-19T09:15:32.047Z,7.13
2023-05-19T09:30:35.945Z,4.40
2023-05-19T09:45:39.581Z,5.83
2023-05-19T10:00:42.924Z,5.43
2023-05-19T10:15:58.267Z,5.77
2023-05-19T10:31:05.120Z,5.13
2023-05-19T10:46:08.196Z,5.90
2023-05-19T11:01:17.340Z,6.57
2023-05-19T11:16:30.796Z,4.57
2023-05-19T11:31:36.466Z,5.00
2023-05-19T11:46:40.153Z,4.50
2023-05-19T12:01:42.594Z,5.40
2023-05-19T12:16:45.616Z,3.67
2023-05-19T12:31:49.212Z,5.33
2023-05-19T12:46:52.338Z,6.20
2023-05-19T13:01:58.712Z,7.23
2023-05-19T13:17:01.285Z,5.93
2023-05-19T13:32:04.170Z,3.47
2023-05-19T13:47:06.611Z,4.47
2023-05-19T14:02:09.582Z,5.17
2023-05-19T14:17:12.502Z,3.77
2023-05-19T14:32:14.979Z,3.50
2023-05-19T14:47:17.537Z,4.10
2023-05-19T15:02:20.144Z,4.50
2023-05-19T15:17:22.733Z,4.77
2023-05-19T15:32:25.507Z,4.43
2023-05-19T15:47:28.268Z,4.73
2023-05-19T16:02:31.367Z,5.23
2023-05-19T16:17:34.751Z,3.90
2023-05-19T16:32:37.623Z,3.97
2023-05-19T16:47:40.193Z,4.27
2023-05-19T17:02:42.904Z,3.43
2023-05-19T17:17:45.646Z,2.23
2023-05-19T17:32:48.562Z,2.60
2023-05-19T17:47:51.547Z,3.53
2023-05-19T18:02:54.460Z,2.80
2023-05-19T18:17:57.187Z,4.53
2023-05-19T18:33:04.006Z,4.47
2023-05-19T18:48:08.030Z,2.47
2023-05-19T19:03:12.483Z,3.10
2023-05-19T19:18:15.914Z,3.17
2023-05-19T19:33:21.123Z,3.70
2023-05-19T19:48:25.992Z,3.13
2023-05-19T20:03:28.812Z,2.03
2023-05-19T20:18:32.302Z,2.30
2023-05-19T20:33:35.467Z,2.40
2023-05-19T20:48:38.114Z,3.33
2023-05-19T21:03:41.689Z,3.97
2023-05-19T21:18:44.902Z,3.03
2023-05-19T21:33:47.398Z,2.83
2023-05-19T21:48:49.868Z,3.40
2023-05-19T22:03:53.281Z,2.10
2023-05-19T22:18:56.872Z,4.03
2023-05-19T22:34:00.043Z,2.77
2023-05-19T22:49:03.088Z,4.00
2023-05-19T23:04:06.260Z,2.90
2023-05-19T23:19:08.833Z,4.13
2023-05-19T23:34:11.425Z,3.10
2023-05-19T23:49:14.591Z,4.23
